sensor_id;sensor_type;location;lat;lon;timestamp;P1;durP1;ratioP1;P2;durP2;ratioP2
2756;SDS011;1386;50.862;6.494;2023-04-25T05:53:28;16.00;;;6.77;;
2756;SDS011;1386;50.862;6.494;2023-04-25T05:55:55;13.00;;;5.90;;
2756;SDS011;1386;50.862;6.494;2023-04-25T05:58:22;20.40;;;6.87;;
2756;SDS011;1386;50.862;6.494;2023-04-25T06:00:49;16.23;;;6.67;;
2756;SDS011;1386;50.862;6.494;2023-04-25T06:03:16;19.33;;;6.20;;
2756;SDS011;1386;50.862;6.494;2023-04-25T06:05:42;10.93;;;5.73;;
2756;SDS011;1386;50.862;6.494;2023-04-25T06:08:09;10.63;;;5.83;;
2756;SDS011;1386;50.862;6.494;2023-04-25T06:10:38;9.93;;;6.47;;
2756;SDS011;1386;50.862;6.494;2023-04-25T06:13:05;19.73;;;5.57;;
2756;SDS011;1386;50.862;6.494;2023-04-25T06:15:32;20.30;;;5.40;;
2756;SDS011;1386;50.862;6.494;2023-04-25T06:18:00;17.03;;;5.60;;
2756;SDS011;1386;50.862;6.494;2023-04-25T06:20:30;11.80;;;5.33;;
2756;SDS011;1386;50.862;6.494;2023-04-25T06:22:57;11.57;;;5.37;;
2756;SDS011;1386;50.862;6.494;2023-04-25T06:25:24;11.53;;;5.70;;
2756;SDS011;1386;50.862;6.494;2023-04-25T06:27:52;10.20;;;5.40;;
2756;SDS011;1386;50.862;6.494;2023-04-25T06:30:20;17.50;;;6.03;;
2756;SDS011;1386;50.862;6.494;2023-04-25T06:32:50;22.60;;;6.40;;
2756;SDS011;1386;50.862;6.494;2023-04-25T06:35:18;12.83;;;5.43;;
2756;SDS011;1386;50.862;6.494;2023-04-25T06:37:44;12.10;;;4.90;;
2756;SDS011;1386;50.862;6.494;2023-04-25T06:40:11;19.07;;;6.67;;
2756;SDS011;1386;50.862;6.494;2023-04-25T06:42:38;15.33;;;7.33;;
2756;SDS011;1386;50.862;6.494;2023-04-25T06:45:07;14.87;;;6.37;;
2756;SDS011;1386;50.862;6.494;2023-04-25T06:47:35;13.50;;;5.63;;
2756;SDS011;1386;50.862;6.494;2023-04-25T06:50:01;13.57;;;6.60;;
2756;SDS011;1386;50.862;6.494;2023-04-25T06:52:29;11.80;;;5.43;;
2756;SDS011;1386;50.862;6.494;2023-04-25T06:54:56;9.70;;;5.20;;
2756;SDS011;1386;50.862;6.494;2023-04-25T06:57:22;16.83;;;6.57;;
2756;SDS011;1386;50.862;6.494;2023-04-25T06:59:49;11.37;;;5.60;;
2756;SDS011;1386;50.862;6.494;2023-04-25T07:02:18;12.53;;;6.00;;
2756;SDS011;1386;50.862;6.494;2023-04-25T07:04:46;14.33;;;5.37;;
2756;SDS011;1386;50.862;6.494;2023-04-25T07:07:13;16.67;;;5.90;;
2756;SDS011;1386;50.862;6.494;2023-04-25T07:09:40;9.50;;;5.83;;
2756;SDS011;1386;50.862;6.494;2023-04-25T07:12:07;10.83;;;5.27;;
2756;SDS011;1386;50.862;6.494;2023-04-25T07:14:34;8.03;;;5.00;;
2756;SDS011;1386;50.862;6.494;2023-04-25T07:17:00;14.60;;;5.80;;
2756;SDS011;1386;50.862;6.494;2023-04-25T07:19:29;20.30;;;6.00;;
2756;SDS011;1386;50.862;6.494;2023-04-25T07:21:55;11.27;;;5.13;;
2756;SDS011;1386;50.862;6.494;2023-04-25T07:24:22;10.50;;;5.63;;
2756;SDS011;1386;50.862;6.494;2023-04-25T07:26:49;11.93;;;4.50;;
2756;SDS011;1386;50.862;6.494;2023-04-25T07:29:17;14.10;;;5.20;;
2756;SDS011;1386;50.862;6.494;2023-04-25T07:31:43;13.10;;;5.57;;
2756;SDS011;1386;50.862;6.494;2023-04-25T07:34:10;9.03;;;4.17;;
2756;SDS011;1386;50.862;6.494;2023-04-25T07:36:38;10.73;;;4.80;;
2756;SDS011;1386;50.862;6.494;2023-04-25T07:39:05;7.07;;;3.80;;
2756;SDS011;1386;50.862;6.494;2023-04-25T07:41:34;11.60;;;4.27;;
2756;SDS011;1386;50.862;6.494;2023-04-25T07:44:00;15.67;;;5.57;;
2756;SDS011;1386;50.862;6.494;2023-04-25T07:46:27;14.80;;;4.90;;
2756;SDS011;1386;50.862;6.494;2023-04-25T07:48:54;9.80;;;4.60;;
2756;SDS011;1386;50.862;6.494;2023-04-25T07:51:21;9.03;;;3.60;;
2756;SDS011;1386;50.862;6.494;2023-04-25T07:53:49;7.30;;;4.03;;
2756;SDS011;1386;50.862;6.494;2023-04-25T07:56:16;10.27;;;3.53;;
2756;SDS011;1386;50.862;6.494;2023-04-25T07:58:43;8.23;;;3.60;;
2756;SDS011;1386;50.862;6.494;2023-04-25T08:01:10;11.33;;;4.57;;
2756;SDS011;1386;50.862;6.494;2023-04-25T08:03:37;11.10;;;4.70;;
2756;SDS011;1386;50.862;6.494;2023-04-25T08:06:04;7.40;;;3.70;;
2756;SDS011;1386;50.862;6.494;2023-04-25T08:08:31;10.63;;;3.10;;
2756;SDS011;1386;50.862;6.494;2023-04-25T08:10:59;9.90;;;3.20;;
2756;SDS011;1386;50.862;6.494;2023-04-25T08:13:26;9.80;;;3.90;;
2756;SDS011;1386;50.862;6.494;2023-04-25T08:15:53;3.20;;;2.90;;
2756;SDS011;1386;50.862;6.494;2023-04-25T08:18:20;7.47;;;3.03;;
2756;SDS011;1386;50.862;6.494;2023-04-25T08:20:47;7.60;;;3.83;;
2756;SDS011;1386;50.862;6.494;2023-04-25T08:23:14;5.63;;;3.17;;
2756;SDS011;1386;50.862;6.494;2023-04-25T08:25:41;7.63;;;3.27;;
2756;SDS011;1386;50.862;6.494;2023-04-25T08:28:10;8.30;;;3.50;;
2756;SDS011;1386;50.862;6.494;2023-04-25T08:30:37;9.20;;;3.67;;
2756;SDS011;1386;50.862;6.494;2023-04-25T08:33:04;4.87;;;3.00;;
2756;SDS011;1386;50.862;6.494;2023-04-25T08:35:31;8.10;;;3.60;;
2756;SDS011;1386;50.862;6.494;2023-04-25T08:37:58;9.30;;;4.10;;
2756;SDS011;1386;50.862;6.494;2023-04-25T08:40:26;7.23;;;4.23;;
2756;SDS011;1386;50.862;6.494;2023-04-25T08:42:55;4.80;;;3.13;;
2756;SDS011;1386;50.862;6.494;2023-04-25T08:45:25;5.77;;;3.20;;
2756;SDS011;1386;50.862;6.494;2023-04-25T08:47:53;6.17;;;3.17;;
2756;SDS011;1386;50.862;6.494;2023-04-25T08:50:24;9.00;;;3.20;;
2756;SDS011;1386;50.862;6.494;2023-04-25T08:52:51;16.67;;;3.23;;
2756;SDS011;1386;50.862;6.494;2023-04-25T08:55:21;8.90;;;3.60;;
2756;SDS011;1386;50.862;6.494;2023-04-25T08:57:48;9.93;;;3.37;;
2756;SDS011;1386;50.862;6.494;2023-04-25T09:00:16;6.13;;;3.10;;
2756;SDS011;1386;50.862;6.494;2023-04-25T09:02:46;4.13;;;2.67;;
2756;SDS011;1386;50.862;6.494;2023-04-25T09:05:16;5.00;;;2.73;;
2756;SDS011;1386;50.862;6.494;2023-04-25T09:07:43;10.80;;;2.97;;
2756;SDS011;1386;50.862;6.494;2023-04-25T09:10:10;5.37;;;2.50;;
2756;SDS011;1386;50.862;6.494;2023-04-25T09:12:37;4.77;;;2.70;;
2756;SDS011;1386;50.862;6.494;2023-04-25T09:15:05;6.20;;;2.83;;
2756;SDS011;1386;50.862;6.494;2023-04-25T09:17:33;10.50;;;3.17;;
2756;SDS011;1386;50.862;6.494;2023-04-25T09:20:07;3.90;;;2.70;;
2756;SDS011;1386;50.862;6.494;2023-04-25T09:22:34;5.27;;;2.70;;
2756;SDS011;1386;50.862;6.494;2023-04-25T09:25:02;12.00;;;3.50;;
2756;SDS011;1386;50.862;6.494;2023-04-25T09:27:31;5.47;;;2.80;;
2756;SDS011;1386;50.862;6.494;2023-04-25T09:29:59;6.93;;;3.60;;
2756;SDS011;1386;50.862;6.494;2023-04-25T09:32:26;7.13;;;3.33;;
2756;SDS011;1386;50.862;6.494;2023-04-25T09:34:54;7.20;;;3.13;;
2756;SDS011;1386;50.862;6.494;2023-04-25T09:37:23;7.80;;;3.77;;
2756;SDS011;1386;50.862;6.494;2023-04-25T09:39:53;10.73;;;3.00;;
2756;SDS011;1386;50.862;6.494;2023-04-25T09:42:26;9.00;;;3.77;;
2756;SDS011;1386;50.862;6.494;2023-04-25T09:44:57;11.10;;;3.53;;
2756;SDS011;1386;50.862;6.494;2023-04-25T09:47:27;7.90;;;3.50;;
2756;SDS011;1386;50.862;6.494;2023-04-25T09:49:54;5.53;;;3.37;;
2756;SDS011;1386;50.862;6.494;2023-04-25T09:52:22;7.90;;;3.17;;
2756;SDS011;1386;50.862;6.494;2023-04-25T09:54:51;7.27;;;3.30;;
2756;SDS011;1386;50.862;6.494;2023-04-25T09:57:19;5.33;;;2.87;;
2756;SDS011;1386;50.862;6.494;2023-04-25T09:59:50;4.73;;;3.13;;
2756;SDS011;1386;50.862;6.494;2023-04-25T10:02:47;8.13;;;3.60;;
2756;SDS011;1386;50.862;6.494;2023-04-25T10:05:32;8.23;;;3.03;;
2756;SDS011;1386;50.862;6.494;2023-04-25T10:08:24;3.90;;;3.20;;
2756;SDS011;1386;50.862;6.494;2023-04-25T10:11:00;4.60;;;3.40;;
2756;SDS011;1386;50.862;6.494;2023-04-25T10:13:31;7.83;;;4.40;;
2756;SDS011;1386;50.862;6.494;2023-04-25T10:16:18;6.30;;;3.60;;
2756;SDS011;1386;50.862;6.494;2023-04-25T10:22:11;6.70;;;3.30;;
2756;SDS011;1386;50.862;6.494;2023-04-25T10:28:13;6.73;;;3.20;;
2756;SDS011;1386;50.862;6.494;2023-04-25T10:31:03;10.13;;;3.00;;
2756;SDS011;1386;50.862;6.494;2023-04-25T10:33:34;4.27;;;2.60;;
2756;SDS011;1386;50.862;6.494;2023-04-25T10:36:31;6.90;;;3.40;;
2756;SDS011;1386;50.862;6.494;2023-04-25T10:39:02;5.93;;;3.33;;
2756;SDS011;1386;50.862;6.494;2023-04-25T10:48:06;10.23;;;3.70;;
2756;SDS011;1386;50.862;6.494;2023-04-25T11:09:00;6.40;;;2.63;;
2756;SDS011;1386;50.862;6.494;2023-04-25T11:12:04;4.67;;;2.70;;
2756;SDS011;1386;50.862;6.494;2023-04-25T11:38:44;5.50;;;2.50;;
2756;SDS011;1386;50.862;6.494;2023-04-25T12:39:21;8.60;;;2.80;;
2756;SDS011;1386;50.862;6.494;2023-04-25T12:41:50;8.00;;;2.63;;
2756;SDS011;1386;50.862;6.494;2023-04-25T12:44:19;7.00;;;2.73;;
2756;SDS011;1386;50.862;6.494;2023-04-25T12:46:46;4.40;;;2.60;;
2756;SDS011;1386;50.862;6.494;2023-04-25T12:49:13;8.37;;;2.30;;
2756;SDS011;1386;50.862;6.494;2023-04-25T12:51:40;10.70;;;2.10;;
2756;SDS011;1386;50.862;6.494;2023-04-25T12:54:07;6.77;;;2.53;;
2756;SDS011;1386;50.862;6.494;2023-04-25T12:56:36;8.00;;;2.07;;
2756;SDS011;1386;50.862;6.494;2023-04-25T12:59:03;3.43;;;1.87;;
2756;SDS011;1386;50.862;6.494;2023-04-25T13:01:30;5.30;;;2.50;;
2756;SDS011;1386;50.862;6.494;2023-04-25T13:03:56;5.60;;;2.50;;
2756;SDS011;1386;50.862;6.494;2023-04-25T13:06:23;6.10;;;2.63;;
2756;SDS011;1386;50.862;6.494;2023-04-25T13:08:51;9.40;;;2.30;;
2756;SDS011;1386;50.862;6.494;2023-04-25T13:11:18;3.67;;;2.23;;
2756;SDS011;1386;50.862;6.494;2023-04-25T13:13:46;3.73;;;2.10;;
2756;SDS011;1386;50.862;6.494;2023-04-25T13:16:13;6.73;;;2.60;;
2756;SDS011;1386;50.862;6.494;2023-04-25T13:18:40;4.53;;;2.40;;
2756;SDS011;1386;50.862;6.494;2023-04-25T13:21:07;7.60;;;2.50;;
2756;SDS011;1386;50.862;6.494;2023-04-25T13:23:35;5.73;;;2.50;;
2756;SDS011;1386;50.862;6.494;2023-04-25T13:26:02;5.43;;;2.60;;
2756;SDS011;1386;50.862;6.494;2023-04-25T13:28:29;6.37;;;2.43;;
2756;SDS011;1386;50.862;6.494;2023-04-25T13:30:59;7.80;;;3.40;;
2756;SDS011;1386;50.862;6.494;2023-04-25T13:33:26;5.93;;;2.73;;
2756;SDS011;1386;50.862;6.494;2023-04-25T13:35:53;3.57;;;2.13;;
2756;SDS011;1386;50.862;6.494;2023-04-25T13:38:21;3.53;;;2.17;;
2756;SDS011;1386;50.862;6.494;2023-04-25T13:40:48;4.57;;;2.63;;
2756;SDS011;1386;50.862;6.494;2023-04-25T13:43:18;3.47;;;2.00;;
2756;SDS011;1386;50.862;6.494;2023-04-25T13:45:46;3.70;;;1.83;;
2756;SDS011;1386;50.862;6.494;2023-04-25T13:48:15;5.40;;;2.37;;
2756;SDS011;1386;50.862;6.494;2023-04-25T13:50:41;4.73;;;2.03;;
2756;SDS011;1386;50.862;6.494;2023-04-25T13:53:08;6.77;;;2.60;;
2756;SDS011;1386;50.862;6.494;2023-04-25T13:55:35;6.17;;;3.07;;
2756;SDS011;1386;50.862;6.494;2023-04-25T13:58:03;4.80;;;2.40;;
2756;SDS011;1386;50.862;6.494;2023-04-25T14:00:33;4.20;;;2.20;;
2756;SDS011;1386;50.862;6.494;2023-04-25T14:03:00;8.40;;;2.37;;
2756;SDS011;1386;50.862;6.494;2023-04-25T14:05:31;5.40;;;2.23;;
2756;SDS011;1386;50.862;6.494;2023-04-25T14:07:59;4.50;;;2.10;;
2756;SDS011;1386;50.862;6.494;2023-04-25T14:10:26;4.80;;;2.60;;
2756;SDS011;1386;50.862;6.494;2023-04-25T14:12:53;4.13;;;1.90;;
2756;SDS011;1386;50.862;6.494;2023-04-25T14:15:20;4.37;;;2.27;;
2756;SDS011;1386;50.862;6.494;2023-04-25T14:17:47;4.77;;;2.40;;
2756;SDS011;1386;50.862;6.494;2023-04-25T14:20:14;3.40;;;1.80;;
2756;SDS011;1386;50.862;6.494;2023-04-25T14:22:46;3.80;;;2.17;;
2756;SDS011;1386;50.862;6.494;2023-04-25T14:25:13;3.27;;;2.03;;
2756;SDS011;1386;50.862;6.494;2023-04-25T14:27:41;2.60;;;2.10;;
2756;SDS011;1386;50.862;6.494;2023-04-25T14:31:11;8.20;;;2.20;;
2756;SDS011;1386;50.862;6.494;2023-04-25T15:56:49;2.93;;;2.00;;
2756;SDS011;1386;50.862;6.494;2023-04-25T15:59:16;2.80;;;1.90;;
2756;SDS011;1386;50.862;6.494;2023-04-25T16:01:42;1.83;;;1.50;;
2756;SDS011;1386;50.862;6.494;2023-04-25T16:04:09;1.60;;;1.30;;
2756;SDS011;1386;50.862;6.494;2023-04-25T16:06:36;2.80;;;1.60;;
2756;SDS011;1386;50.862;6.494;2023-04-25T16:09:03;7.20;;;2.10;;
2756;SDS011;1386;50.862;6.494;2023-04-25T16:11:30;2.13;;;1.93;;
2756;SDS011;1386;50.862;6.494;2023-04-25T16:13:58;3.37;;;2.00;;
2756;SDS011;1386;50.862;6.494;2023-04-25T16:16:25;3.40;;;1.83;;
2756;SDS011;1386;50.862;6.494;2023-04-25T16:18:52;3.20;;;2.60;;
2756;SDS011;1386;50.862;6.494;2023-04-25T16:21:19;4.90;;;1.73;;
2756;SDS011;1386;50.862;6.494;2023-04-25T16:23:46;4.03;;;2.40;;
2756;SDS011;1386;50.862;6.494;2023-04-25T16:26:13;3.10;;;2.13;;
2756;SDS011;1386;50.862;6.494;2023-04-25T16:28:40;2.57;;;2.13;;
2756;SDS011;1386;50.862;6.494;2023-04-25T16:31:08;3.87;;;1.97;;
2756;SDS011;1386;50.862;6.494;2023-04-25T16:33:38;4.57;;;2.00;;
2756;SDS011;1386;50.862;6.494;2023-04-25T16:36:05;4.10;;;1.33;;
2756;SDS011;1386;50.862;6.494;2023-04-25T16:38:33;1.70;;;1.60;;
2756;SDS011;1386;50.862;6.494;2023-04-25T16:41:00;3.60;;;1.60;;
2756;SDS011;1386;50.862;6.494;2023-04-25T16:43:27;3.30;;;1.40;;
2756;SDS011;1386;50.862;6.494;2023-04-25T16:45:53;2.20;;;1.70;;
2756;SDS011;1386;50.862;6.494;2023-04-25T16:48:22;4.50;;;2.20;;
2756;SDS011;1386;50.862;6.494;2023-04-25T16:50:53;4.50;;;2.53;;
2756;SDS011;1386;50.862;6.494;2023-04-25T16:53:20;4.73;;;2.27;;
2756;SDS011;1386;50.862;6.494;2023-04-25T16:55:47;2.67;;;1.80;;
2756;SDS011;1386;50.862;6.494;2023-04-25T17:01:44;3.63;;;2.67;;
2756;SDS011;1386;50.862;6.494;2023-04-25T17:04:13;2.07;;;1.70;;
2756;SDS011;1386;50.862;6.494;2023-04-25T17:06:40;4.43;;;2.23;;
2756;SDS011;1386;50.862;6.494;2023-04-25T17:09:07;8.20;;;1.83;;
2756;SDS011;1386;50.862;6.494;2023-04-25T17:11:34;4.50;;;1.77;;
2756;SDS011;1386;50.862;6.494;2023-04-25T17:14:06;4.53;;;2.00;;
2756;SDS011;1386;50.862;6.494;2023-04-25T17:16:33;4.83;;;2.20;;
2756;SDS011;1386;50.862;6.494;2023-04-25T17:19:01;4.67;;;2.50;;
2756;SDS011;1386;50.862;6.494;2023-04-25T17:21:30;6.30;;;2.43;;
2756;SDS011;1386;50.862;6.494;2023-04-25T17:23:57;4.20;;;2.20;;
2756;SDS011;1386;50.862;6.494;2023-04-25T17:26:24;6.00;;;2.00;;
2756;SDS011;1386;50.862;6.494;2023-04-25T17:28:51;6.47;;;2.50;;
2756;SDS011;1386;50.862;6.494;2023-04-25T17:31:19;7.63;;;1.80;;
2756;SDS011;1386;50.862;6.494;2023-04-25T17:33:46;4.50;;;2.00;;
2756;SDS011;1386;50.862;6.494;2023-04-25T17:36:13;5.20;;;1.77;;
2756;SDS011;1386;50.862;6.494;2023-04-25T17:38:42;3.97;;;1.83;;
2756;SDS011;1386;50.862;6.494;2023-04-25T17:41:09;2.73;;;1.90;;
2756;SDS011;1386;50.862;6.494;2023-04-25T17:43:38;8.13;;;2.00;;
2756;SDS011;1386;50.862;6.494;2023-04-25T17:46:05;2.13;;;1.70;;
2756;SDS011;1386;50.862;6.494;2023-04-25T17:48:32;3.97;;;2.07;;
2756;SDS011;1386;50.862;6.494;2023-04-25T17:50:59;4.73;;;1.93;;
2756;SDS011;1386;50.862;6.494;2023-04-25T17:53:26;2.87;;;2.30;;
2756;SDS011;1386;50.862;6.494;2023-04-25T17:59:26;4.43;;;2.20;;
2756;SDS011;1386;50.862;6.494;2023-04-25T18:02:22;2.83;;;2.00;;
2756;SDS011;1386;50.862;6.494;2023-04-25T18:04:48;5.10;;;1.60;;
2756;SDS011;1386;50.862;6.494;2023-04-25T18:07:16;6.73;;;2.07;;
2756;SDS011;1386;50.862;6.494;2023-04-25T18:09:43;5.07;;;1.93;;
2756;SDS011;1386;50.862;6.494;2023-04-25T18:12:10;4.03;;;2.27;;
2756;SDS011;1386;50.862;6.494;2023-04-25T18:14:40;5.03;;;1.63;;
2756;SDS011;1386;50.862;6.494;2023-04-25T18:17:09;3.20;;;1.60;;
2756;SDS011;1386;50.862;6.494;2023-04-25T18:20:25;4.10;;;1.83;;
2756;SDS011;1386;50.862;6.494;2023-04-25T18:23:07;2.00;;;1.80;;
2756;SDS011;1386;50.862;6.494;2023-04-25T18:25:45;3.57;;;2.10;;
2756;SDS011;1386;50.862;6.494;2023-04-25T18:28:16;4.17;;;2.07;;
2756;SDS011;1386;50.862;6.494;2023-04-25T18:30:45;4.40;;;2.03;;
2756;SDS011;1386;50.862;6.494;2023-04-25T18:33:19;4.23;;;1.90;;
2756;SDS011;1386;50.862;6.494;2023-04-25T18:35:49;6.60;;;1.90;;
2756;SDS011;1386;50.862;6.494;2023-04-25T18:38:16;4.20;;;2.03;;
2756;SDS011;1386;50.862;6.494;2023-04-25T18:40:44;4.80;;;2.53;;
2756;SDS011;1386;50.862;6.494;2023-04-25T18:43:13;4.50;;;2.37;;
2756;SDS011;1386;50.862;6.494;2023-04-25T18:45:45;3.10;;;2.23;;
2756;SDS011;1386;50.862;6.494;2023-04-25T18:48:42;3.40;;;2.10;;
2756;SDS011;1386;50.862;6.494;2023-04-25T18:51:09;5.57;;;2.23;;
2756;SDS011;1386;50.862;6.494;2023-04-25T18:53:36;5.50;;;2.40;;
2756;SDS011;1386;50.862;6.494;2023-04-25T18:56:03;3.60;;;2.60;;
2756;SDS011;1386;50.862;6.494;2023-04-25T18:58:30;3.10;;;1.97;;
2756;SDS011;1386;50.862;6.494;2023-04-25T19:00:59;8.03;;;3.53;;
2756;SDS011;1386;50.862;6.494;2023-04-25T19:03:28;4.33;;;2.73;;
2756;SDS011;1386;50.862;6.494;2023-04-25T19:05:55;7.47;;;2.80;;
2756;SDS011;1386;50.862;6.494;2023-04-25T19:08:22;2.77;;;2.17;;
2756;SDS011;1386;50.862;6.494;2023-04-25T19:10:49;9.50;;;2.47;;
2756;SDS011;1386;50.862;6.494;2023-04-25T19:13:17;2.73;;;2.20;;
2756;SDS011;1386;50.862;6.494;2023-04-25T19:15:44;3.67;;;2.53;;
2756;SDS011;1386;50.862;6.494;2023-04-25T19:18:13;3.97;;;2.50;;
2756;SDS011;1386;50.862;6.494;2023-04-25T19:20:40;4.30;;;2.80;;
2756;SDS011;1386;50.862;6.494;2023-04-25T19:23:07;3.47;;;2.63;;
2756;SDS011;1386;50.862;6.494;2023-04-25T19:25:34;4.40;;;3.10;;
2756;SDS011;1386;50.862;6.494;2023-04-25T19:28:01;7.37;;;3.10;;
2756;SDS011;1386;50.862;6.494;2023-04-25T19:30:31;5.53;;;3.30;;
2756;SDS011;1386;50.862;6.494;2023-04-25T19:32:58;5.30;;;3.37;;
2756;SDS011;1386;50.862;6.494;2023-04-25T19:35:27;4.97;;;3.10;;
2756;SDS011;1386;50.862;6.494;2023-04-25T19:37:56;5.70;;;3.00;;
2756;SDS011;1386;50.862;6.494;2023-04-25T19:40:24;5.80;;;3.47;;
2756;SDS011;1386;50.862;6.494;2023-04-25T19:42:51;4.07;;;3.30;;
2756;SDS011;1386;50.862;6.494;2023-04-25T19:45:18;4.47;;;3.00;;
2756;SDS011;1386;50.862;6.494;2023-04-25T19:47:45;3.57;;;2.80;;
2756;SDS011;1386;50.862;6.494;2023-04-25T19:50:13;4.27;;;2.47;;
2756;SDS011;1386;50.862;6.494;2023-04-25T19:52:41;2.97;;;2.00;;
2756;SDS011;1386;50.862;6.494;2023-04-25T19:55:09;2.63;;;2.43;;
2756;SDS011;1386;50.862;6.494;2023-04-25T19:57:36;7.20;;;2.50;;
2756;SDS011;1386;50.862;6.494;2023-04-25T20:00:05;4.17;;;2.33;;
2756;SDS011;1386;50.862;6.494;2023-04-25T20:02:37;3.40;;;2.10;;
2756;SDS011;1386;50.862;6.494;2023-04-25T20:05:05;5.83;;;2.10;;
2756;SDS011;1386;50.862;6.494;2023-04-25T20:07:33;5.03;;;2.60;;
2756;SDS011;1386;50.862;6.494;2023-04-25T20:10:03;3.30;;;2.47;;
2756;SDS011;1386;50.862;6.494;2023-04-25T20:12:31;7.60;;;3.00;;
2756;SDS011;1386;50.862;6.494;2023-04-25T20:15:01;8.07;;;2.70;;
2756;SDS011;1386;50.862;6.494;2023-04-25T20:17:28;7.20;;;2.30;;
2756;SDS011;1386;50.862;6.494;2023-04-25T20:19:55;8.20;;;2.40;;
2756;SDS011;1386;50.862;6.494;2023-04-25T20:22:21;3.87;;;2.53;;
2756;SDS011;1386;50.862;6.494;2023-04-25T20:24:49;6.93;;;2.20;;
2756;SDS011;1386;50.862;6.494;2023-04-25T20:27:17;3.27;;;2.37;;
2756;SDS011;1386;50.862;6.494;2023-04-25T20:29:44;3.13;;;2.70;;
2756;SDS011;1386;50.862;6.494;2023-04-25T20:32:11;5.13;;;2.27;;
2756;SDS011;1386;50.862;6.494;2023-04-25T20:34:38;5.70;;;3.17;;
2756;SDS011;1386;50.862;6.494;2023-04-25T20:37:06;8.10;;;2.70;;
2756;SDS011;1386;50.862;6.494;2023-04-25T20:39:33;4.10;;;2.17;;
2756;SDS011;1386;50.862;6.494;2023-04-25T20:41:59;6.53;;;3.03;;
2756;SDS011;1386;50.862;6.494;2023-04-25T20:44:28;3.33;;;2.70;;
2756;SDS011;1386;50.862;6.494;2023-04-25T20:46:58;5.97;;;2.50;;
2756;SDS011;1386;50.862;6.494;2023-04-25T20:49:28;4.60;;;2.40;;
2756;SDS011;1386;50.862;6.494;2023-04-25T20:51:55;13.97;;;3.50;;
2756;SDS011;1386;50.862;6.494;2023-04-25T20:54:22;7.30;;;2.90;;
2756;SDS011;1386;50.862;6.494;2023-04-25T20:56:51;4.27;;;3.00;;
2756;SDS011;1386;50.862;6.494;2023-04-25T20:59:20;3.43;;;3.10;;
2756;SDS011;1386;50.862;6.494;2023-04-25T21:01:49;8.80;;;2.90;;
2756;SDS011;1386;50.862;6.494;2023-04-25T21:04:16;5.23;;;2.80;;
2756;SDS011;1386;50.862;6.494;2023-04-25T21:06:43;4.97;;;2.63;;
2756;SDS011;1386;50.862;6.494;2023-04-25T21:09:09;4.67;;;2.93;;
2756;SDS011;1386;50.862;6.494;2023-04-25T21:11:37;5.90;;;3.20;;
2756;SDS011;1386;50.862;6.494;2023-04-25T21:14:04;5.77;;;2.77;;
2756;SDS011;1386;50.862;6.494;2023-04-25T21:16:31;8.70;;;3.03;;
2756;SDS011;1386;50.862;6.494;2023-04-25T21:19:00;4.60;;;2.70;;
2756;SDS011;1386;50.862;6.494;2023-04-25T21:21:28;6.40;;;2.93;;
2756;SDS011;1386;50.862;6.494;2023-04-25T21:23:55;4.10;;;2.60;;
2756;SDS011;1386;50.862;6.494;2023-04-25T21:26:22;5.80;;;2.77;;
2756;SDS011;1386;50.862;6.494;2023-04-25T21:28:49;5.63;;;3.10;;
2756;SDS011;1386;50.862;6.494;2023-04-25T21:31:17;6.70;;;3.53;;
2756;SDS011;1386;50.862;6.494;2023-04-25T21:33:44;5.80;;;4.00;;
2756;SDS011;1386;50.862;6.494;2023-04-25T21:36:13;5.73;;;3.33;;
2756;SDS011;1386;50.862;6.494;2023-04-25T21:38:39;7.00;;;4.10;;
2756;SDS011;1386;50.862;6.494;2023-04-25T21:41:06;4.60;;;3.40;;
2756;SDS011;1386;50.862;6.494;2023-04-25T21:43:33;9.50;;;5.63;;
2756;SDS011;1386;50.862;6.494;2023-04-25T21:46:01;6.80;;;3.97;;
2756;SDS011;1386;50.862;6.494;2023-04-25T21:48:28;6.20;;;4.40;;
2756;SDS011;1386;50.862;6.494;2023-04-25T21:50:55;7.03;;;4.33;;
2756;SDS011;1386;50.862;6.494;2023-04-25T21:53:24;4.20;;;3.80;;
2756;SDS011;1386;50.862;6.494;2023-04-25T21:55:51;6.37;;;4.23;;
2756;SDS011;1386;50.862;6.494;2023-04-25T21:58:18;6.37;;;3.63;;
2756;SDS011;1386;50.862;6.494;2023-04-25T22:00:45;7.50;;;4.20;;
2756;SDS011;1386;50.862;6.494;2023-04-25T22:03:12;6.80;;;3.50;;
2756;SDS011;1386;50.862;6.494;2023-04-25T22:05:39;5.20;;;3.50;;
2756;SDS011;1386;50.862;6.494;2023-04-25T22:08:06;8.37;;;3.97;;
2756;SDS011;1386;50.862;6.494;2023-04-25T22:10:35;6.37;;;3.57;;
2756;SDS011;1386;50.862;6.494;2023-04-25T22:13:02;3.93;;;3.07;;
2756;SDS011;1386;50.862;6.494;2023-04-25T22:15:29;10.20;;;3.93;;
2756;SDS011;1386;50.862;6.494;2023-04-25T22:17:56;6.50;;;3.00;;
2756;SDS011;1386;50.862;6.494;2023-04-25T22:20:24;4.03;;;2.83;;
2756;SDS011;1386;50.862;6.494;2023-04-25T22:22:52;4.60;;;3.63;;
2756;SDS011;1386;50.862;6.494;2023-04-25T22:25:21;6.10;;;3.67;;
2756;SDS011;1386;50.862;6.494;2023-04-25T22:27:50;5.37;;;3.30;;
2756;SDS011;1386;50.862;6.494;2023-04-25T22:30:17;5.43;;;3.33;;
2756;SDS011;1386;50.862;6.494;2023-04-25T22:32:44;4.40;;;3.30;;
2756;SDS011;1386;50.862;6.494;2023-04-25T22:35:10;8.40;;;3.40;;
2756;SDS011;1386;50.862;6.494;2023-04-25T22:37:37;6.97;;;3.67;;
2756;SDS011;1386;50.862;6.494;2023-04-25T22:40:06;5.60;;;2.90;;
2756;SDS011;1386;50.862;6.494;2023-04-25T22:42:37;5.07;;;3.40;;
2756;SDS011;1386;50.862;6.494;2023-04-25T22:45:06;10.23;;;3.80;;
2756;SDS011;1386;50.862;6.494;2023-04-25T22:47:34;9.13;;;4.27;;
2756;SDS011;1386;50.862;6.494;2023-04-25T22:50:01;3.47;;;3.20;;
2756;SDS011;1386;50.862;6.494;2023-04-25T22:52:31;5.53;;;3.53;;
2756;SDS011;1386;50.862;6.494;2023-04-25T22:54:58;4.40;;;4.00;;
2756;SDS011;1386;50.862;6.494;2023-04-25T22:57:26;5.57;;;4.50;;
2756;SDS011;1386;50.862;6.494;2023-04-25T22:59:53;5.10;;;3.23;;
2756;SDS011;1386;50.862;6.494;2023-04-25T23:02:23;5.47;;;3.90;;
2756;SDS011;1386;50.862;6.494;2023-04-25T23:04:50;4.43;;;3.67;;
2756;SDS011;1386;50.862;6.494;2023-04-25T23:07:17;4.63;;;3.40;;
2756;SDS011;1386;50.862;6.494;2023-04-25T23:09:45;5.20;;;3.87;;
2756;SDS011;1386;50.862;6.494;2023-04-25T23:12:12;3.90;;;3.43;;
2756;SDS011;1386;50.862;6.494;2023-04-25T23:14:47;8.73;;;3.50;;
2756;SDS011;1386;50.862;6.494;2023-04-25T23:17:15;4.13;;;3.60;;
2756;SDS011;1386;50.862;6.494;2023-04-25T23:19:44;7.13;;;4.67;;
2756;SDS011;1386;50.862;6.494;2023-04-25T23:22:10;3.90;;;3.43;;
2756;SDS011;1386;50.862;6.494;2023-04-25T23:24:38;6.47;;;4.47;;
2756;SDS011;1386;50.862;6.494;2023-04-25T23:27:05;4.27;;;3.87;;
2756;SDS011;1386;50.862;6.494;2023-04-25T23:29:32;4.30;;;3.77;;
2756;SDS011;1386;50.862;6.494;2023-04-25T23:32:00;3.97;;;3.57;;
2756;SDS011;1386;50.862;6.494;2023-04-25T23:34:28;5.60;;;3.27;;
2756;SDS011;1386;50.862;6.494;2023-04-25T23:36:57;9.67;;;4.17;;
2756;SDS011;1386;50.862;6.494;2023-04-25T23:39:28;10.13;;;4.27;;
2756;SDS011;1386;50.862;6.494;2023-04-25T23:41:55;5.20;;;4.20;;
2756;SDS011;1386;50.862;6.494;2023-04-25T23:44:22;9.13;;;4.27;;
2756;SDS011;1386;50.862;6.494;2023-04-25T23:46:49;8.40;;;4.03;;
2756;SDS011;1386;50.862;6.494;2023-04-25T23:49:16;5.87;;;4.10;;
2756;SDS011;1386;50.862;6.494;2023-04-25T23:51:43;6.77;;;4.50;;
2756;SDS011;1386;50.862;6.494;2023-04-25T23:54:11;5.60;;;4.30;;
2756;SDS011;1386;50.862;6.494;2023-04-25T23:56:39;6.60;;;4.63;;
2756;SDS011;1386;50.862;6.494;2023-04-25T23:59:06;3.90;;;3.50;;
